Key Largo, Florida
Current Conditions -  °F | °C
As of 12:58 AM on Saturday 20 Dec 2014 (Local Time) from KHST Reporting Station
Clear Clear  
Wind Chill: 59°   Ceiling: Unl
Heat Index: 59°   Visibility: 10mi
Dew Point: 57°   Wind: 0mph
Humidity: 94%   Direction: NA
Pressure: 30.05"   Gusts: NA
Location:  25.17°N, 80.38°W
Report Text: KHST 200558Z AUTO 00000KT 10SM CLR 15/14 A3005 RMK AO2 SLP179 T01500141 10185 20144 57009 $
Loading
Personal Weather Stations






























Interactive Weather Map New forecast layout! Learn more

10-Day Weather Forecast

Advertisements
Track Severe Weather on mobile